createdAt,value
2022-08-17T00:00:01.394Z,161.27
2022-08-17T00:02:29.051Z,29.60
2022-08-17T00:04:58.479Z,21.23
2022-08-17T00:07:25.560Z,24.27
2022-08-17T00:09:52.839Z,24.42
2022-08-17T00:12:42.111Z,22.70
2022-08-17T00:15:12.172Z,24.20
2022-08-17T00:17:42.194Z,21.63
2022-08-17T00:20:12.155Z,21.83
2022-08-17T00:22:39.260Z,21.75
2022-08-17T00:25:13.088Z,24.13
2022-08-17T00:27:40.230Z,27.27
2022-08-17T00:30:11.291Z,22.00
2022-08-17T00:33:15.572Z,22.73
2022-08-17T00:35:35.056Z,73.35
2022-08-17T00:38:05.107Z,49.42
2022-08-17T00:40:40.726Z,35.45
2022-08-17T00:43:30.146Z,29.55
2022-08-17T00:45:58.008Z,20.85
2022-08-17T00:48:30.475Z,24.23
2022-08-17T00:51:27.088Z,22.40
2022-08-17T00:54:00.185Z,20.02
2022-08-17T00:56:36.380Z,24.67
2022-08-17T00:59:09.065Z,23.20
2022-08-17T01:01:37.282Z,27.00
2022-08-17T01:06:34.066Z,27.77
2022-08-17T01:09:02.230Z,25.42
2022-08-17T01:11:32.301Z,36.58
2022-08-17T01:13:59.756Z,23.42
2022-08-17T01:16:29.528Z,24.17
2022-08-17T01:19:07.954Z,25.13
2022-08-17T01:21:58.457Z,25.92
2022-08-17T01:24:37.173Z,25.05
2022-08-17T01:27:10.326Z,24.75
2022-08-17T01:29:41.269Z,27.92
2022-08-17T01:32:08.969Z,25.27
2022-08-17T01:34:43.691Z,24.40
2022-08-17T01:39:52.671Z,23.13
2022-08-17T01:42:37.104Z,29.45
2022-08-17T01:45:12.885Z,29.13
2022-08-17T01:47:42.126Z,28.63
2022-08-17T01:50:17.332Z,31.02
2022-08-17T01:52:49.453Z,34.20
2022-08-17T01:55:24.570Z,31.52
2022-08-17T01:57:54.814Z,29.42
2022-08-17T02:00:22.106Z,32.75
2022-08-17T02:02:49.260Z,28.83
2022-08-17T02:05:18.864Z,27.95
2022-08-17T02:07:59.500Z,31.88
2022-08-17T02:10:34.028Z,39.50
2022-08-17T02:13:03.655Z,31.17
2022-08-17T02:15:32.112Z,32.45
2022-08-17T02:17:59.686Z,30.23
2022-08-17T02:20:41.951Z,26.60
2022-08-17T02:23:12.966Z,25.50
2022-08-17T02:25:43.508Z,27.65
2022-08-17T02:28:14.775Z,25.65
2022-08-17T02:31:01.332Z,25.52
2022-08-17T02:33:42.611Z,28.02
2022-08-17T02:36:12.774Z,30.00
2022-08-17T02:38:41.210Z,31.92
2022-08-17T02:41:09.373Z,24.20
2022-08-17T02:43:36.869Z,23.05
2022-08-17T02:46:04.250Z,24.63
2022-08-17T02:48:32.032Z,26.45
2022-08-17T02:51:01.244Z,25.80
2022-08-17T02:53:29.762Z,32.75
2022-08-17T02:56:06.539Z,26.33
2022-08-17T02:58:34.975Z,25.17
2022-08-17T03:01:06.497Z,26.92
2022-08-17T03:03:34.298Z,24.40
2022-08-17T03:06:03.917Z,28.80
2022-08-17T03:08:31.009Z,40.42
2022-08-17T03:10:58.253Z,34.50
2022-08-17T03:13:27.538Z,32.08
2022-08-17T03:15:54.599Z,31.48
2022-08-17T03:18:26.072Z,26.60
2022-08-17T03:20:56.119Z,31.25
2022-08-17T03:23:25.451Z,34.38
2022-08-17T03:25:54.627Z,32.17
2022-08-17T03:28:22.964Z,30.90
2022-08-17T03:30:51.368Z,36.15
2022-08-17T03:33:20.645Z,30.23
2022-08-17T03:35:50.109Z,33.17
2022-08-17T03:38:18.005Z,35.08
2022-08-17T03:40:57.713Z,31.02
2022-08-17T03:43:31.753Z,33.60
2022-08-17T03:46:34.203Z,26.67
2022-08-17T03:49:26.476Z,33.20
2022-08-17T03:52:14.028Z,29.38
2022-08-17T03:57:27.974Z,27.02
2022-08-17T03:59:55.937Z,29.45
2022-08-17T04:02:30.687Z,37.28
2022-08-17T04:04:58.742Z,34.22
2022-08-17T04:07:29.399Z,26.90
2022-08-17T04:09:58.283Z,25.08
2022-08-17T04:12:31.097Z,24.92
2022-08-17T04:15:01.012Z,31.98
2022-08-17T04:17:34.900Z,28.50
2022-08-17T04:20:02.099Z,27.00
2022-08-17T04:22:32.896Z,32.10
2022-08-17T04:25:04.978Z,32.60
2022-08-17T04:27:35.742Z,26.95
2022-08-17T04:30:07.321Z,29.15
2022-08-17T04:33:04.769Z,32.95
2022-08-17T04:35:44.048Z,30.75
2022-08-17T04:38:15.851Z,35.08
2022-08-17T04:41:02.372Z,32.65
2022-08-17T04:43:33.066Z,25.52
2022-08-17T04:46:03.111Z,28.13
2022-08-17T04:48:43.225Z,31.50
2022-08-17T04:51:17.005Z,31.75
2022-08-17T04:53:53.963Z,29.10
2022-08-17T04:56:23.218Z,29.20
2022-08-17T04:58:53.823Z,27.95
2022-08-17T05:01:36.691Z,32.10
2022-08-17T05:04:33.257Z,26.95
2022-08-17T05:06:55.974Z,30.27
2022-08-17T05:09:23.382Z,31.77
2022-08-17T05:11:51.701Z,27.73
2022-08-17T05:14:21.331Z,27.90
2022-08-17T05:17:00.994Z,26.40
2022-08-17T05:19:30.614Z,25.40
2022-08-17T05:21:57.650Z,28.92
2022-08-17T05:24:38.734Z,26.90
2022-08-17T05:27:10.611Z,25.02
2022-08-17T05:29:46.549Z,34.13
2022-08-17T05:32:38.580Z,29.00
2022-08-17T05:35:02.537Z,24.73
2022-08-17T05:37:29.620Z,30.05
2022-08-17T05:39:56.797Z,31.38
2022-08-17T05:42:24.480Z,26.50
2022-08-17T05:44:51.604Z,25.95
2022-08-17T05:47:19.484Z,29.30
2022-08-17T05:49:49.082Z,28.88
2022-08-17T05:52:23.858Z,27.30
2022-08-17T05:54:54.020Z,35.00
2022-08-17T05:57:56.098Z,30.77
2022-08-17T06:00:30.575Z,32.53
2022-08-17T06:03:37.294Z,29.52
2022-08-17T06:09:22.813Z,31.67
2022-08-17T06:12:05.054Z,25.05
2022-08-17T06:15:05.114Z,23.13
2022-08-17T06:17:34.105Z,26.60
2022-08-17T06:20:14.606Z,28.95
2022-08-17T06:22:52.366Z,28.13
2022-08-17T06:25:36.836Z,32.13
2022-08-17T06:28:13.758Z,27.40
2022-08-17T06:30:59.238Z,26.00
2022-08-17T06:33:36.607Z,26.13
2022-08-17T06:36:16.657Z,29.70
2022-08-17T06:39:10.677Z,29.65
2022-08-17T06:43:02.928Z,25.45
2022-08-17T06:45:10.547Z,30.40
2022-08-17T06:47:48.017Z,35.13
2022-08-17T06:50:40.789Z,28.73
2022-08-17T06:53:30.641Z,22.50
2022-08-17T06:56:10.389Z,21.35
2022-08-17T06:58:48.459Z,26.02
2022-08-17T07:01:25.207Z,27.52
2022-08-17T07:03:55.926Z,26.45
2022-08-17T07:06:28.515Z,25.48
2022-08-17T07:09:03.732Z,21.95
2022-08-17T07:11:34.387Z,23.30
2022-08-17T07:14:37.756Z,25.98
2022-08-17T07:17:15.566Z,24.27
2022-08-17T07:19:46.231Z,24.75
2022-08-17T07:22:55.237Z,30.33
2022-08-17T07:25:38.448Z,21.60
2022-08-17T07:28:07.881Z,24.55
2022-08-17T07:30:57.093Z,24.15
2022-08-17T07:33:28.122Z,18.08
2022-08-17T07:36:01.506Z,21.33
2022-08-17T07:38:54.262Z,20.30
2022-08-17T07:41:23.789Z,23.65
2022-08-17T07:43:56.676Z,18.95
2022-08-17T07:46:46.851Z,22.05
2022-08-17T07:49:13.912Z,18.52
2022-08-17T07:51:53.455Z,20.17
2022-08-17T07:54:27.362Z,20.70
2022-08-17T07:56:56.416Z,18.05
2022-08-17T07:59:28.653Z,19.13
2022-08-17T08:02:06.204Z,20.33
2022-08-17T08:05:08.904Z,20.67
2022-08-17T08:07:51.267Z,17.88
2022-08-17T08:10:36.680Z,18.95
2022-08-17T08:13:25.501Z,21.08
2022-08-17T08:15:57.028Z,28.25
2022-08-17T08:18:53.997Z,18.35
2022-08-17T08:22:06.971Z,20.65
2022-08-17T08:24:48.587Z,15.68
2022-08-17T08:27:30.935Z,14.75
2022-08-17T08:30:22.164Z,17.33
2022-08-17T08:33:12.416Z,16.85
2022-08-17T08:37:12.700Z,14.82
2022-08-17T08:42:48.852Z,14.57
2022-08-17T08:45:21.999Z,17.70
2022-08-17T08:48:45.842Z,21.23
2022-08-17T08:51:30.164Z,16.65
2022-08-17T08:54:26.226Z,16.52
2022-08-17T08:57:34.507Z,20.33
2022-08-17T09:00:26.281Z,18.38
2022-08-17T09:03:17.611Z,16.92
2022-08-17T09:06:37.744Z,18.10
2022-08-17T09:09:15.250Z,16.77
2022-08-17T09:12:01.411Z,20.33
2022-08-17T09:14:51.975Z,20.10
2022-08-17T09:17:32.788Z,18.10
2022-08-17T09:20:28.088Z,14.07
2022-08-17T09:23:07.350Z,14.52
2022-08-17T09:25:51.794Z,16.92
2022-08-17T09:28:25.690Z,19.02
2022-08-17T09:31:06.966Z,22.50
2022-08-17T09:33:44.698Z,13.27
2022-08-17T09:36:17.119Z,13.88
2022-08-17T09:42:49.593Z,15.15
2022-08-17T09:45:34.915Z,13.80
2022-08-17T09:48:31.160Z,13.88
2022-08-17T09:51:10.547Z,20.17
2022-08-17T09:53:39.252Z,18.98
2022-08-17T09:56:45.529Z,17.58
2022-08-17T09:59:27.916Z,16.88
2022-08-17T10:02:40.752Z,17.25
2022-08-17T10:08:31.185Z,22.55
2022-08-17T10:11:08.840Z,22.30
2022-08-17T10:13:53.168Z,22.33
2022-08-17T10:16:47.939Z,18.98
2022-08-17T10:19:53.318Z,18.55
2022-08-17T10:23:03.687Z,15.63
2022-08-17T10:25:55.759Z,15.63
2022-08-17T10:28:32.108Z,18.27
2022-08-17T10:31:33.864Z,17.23
2022-08-17T10:34:03.443Z,16.48
2022-08-17T10:36:39.250Z,16.40
2022-08-17T10:39:12.713Z,19.15
2022-08-17T10:41:47.321Z,21.88
2022-08-17T10:44:40.456Z,22.80
2022-08-17T10:47:11.814Z,15.73
2022-08-17T10:49:57.201Z,19.58
2022-08-17T10:52:26.537Z,21.08
2022-08-17T10:54:58.513Z,23.85
2022-08-17T10:57:39.378Z,17.48
2022-08-17T11:00:16.153Z,15.32
2022-08-17T11:02:57.643Z,16.48
2022-08-17T11:05:52.379Z,17.88
2022-08-17T11:08:42.500Z,17.48
2022-08-17T11:11:10.795Z,15.35
2022-08-17T11:14:17.552Z,21.38
2022-08-17T11:16:56.219Z,23.30
2022-08-17T11:19:32.480Z,17.55
2022-08-17T11:22:40.633Z,16.25
2022-08-17T11:25:21.144Z,21.65
2022-08-17T11:27:53.919Z,17.17
2022-08-17T11:30:43.506Z,15.95
2022-08-17T11:33:30.442Z,17.00
2022-08-17T11:36:29.524Z,17.55
2022-08-17T11:39:07.728Z,22.75
2022-08-17T11:42:10.380Z,23.63
2022-08-17T11:45:03.900Z,17.77
2022-08-17T11:48:26.171Z,21.60
2022-08-17T11:51:17.845Z,19.33
2022-08-17T11:53:45.931Z,16.48
2022-08-17T11:56:41.292Z,20.38
2022-08-17T11:59:33.618Z,18.38
2022-08-17T12:02:29.936Z,18.25
2022-08-17T12:05:29.517Z,19.05
2022-08-17T12:08:18.894Z,23.73
2022-08-17T12:10:54.441Z,29.75
2022-08-17T12:13:23.900Z,29.33
2022-08-17T12:15:58.703Z,27.42
2022-08-17T12:18:32.195Z,32.35
2022-08-17T12:21:57.899Z,29.10
2022-08-17T12:24:46.296Z,28.08
2022-08-17T12:27:46.098Z,28.52
2022-08-17T12:30:20.546Z,24.23
2022-08-17T12:32:48.786Z,24.17
2022-08-17T12:35:48.326Z,18.83
2022-08-17T12:38:32.080Z,20.67
2022-08-17T12:41:21.803Z,28.85
2022-08-17T12:44:12.797Z,21.15
2022-08-17T12:46:59.307Z,21.30
2022-08-17T12:49:36.161Z,18.10
2022-08-17T12:52:09.143Z,18.35
2022-08-17T12:54:45.544Z,15.70
2022-08-17T12:57:23.653Z,19.42
2022-08-17T12:59:55.401Z,19.63
2022-08-17T13:02:29.002Z,21.13
2022-08-17T13:04:59.234Z,21.80
2022-08-17T13:07:36.843Z,18.20
2022-08-17T13:10:04.423Z,19.23
2022-08-17T13:12:35.153Z,20.38
2022-08-17T13:15:02.277Z,19.15
2022-08-17T13:17:35.810Z,16.52
2022-08-17T13:20:05.830Z,19.08
2022-08-17T13:22:33.855Z,18.35
2022-08-17T13:25:09.454Z,20.20
2022-08-17T13:27:42.909Z,22.50
2022-08-17T13:30:12.287Z,27.73
2022-08-17T13:32:44.303Z,26.38
2022-08-17T13:35:39.903Z,28.48
2022-08-17T13:38:12.735Z,31.95
2022-08-17T13:40:53.245Z,25.90
2022-08-17T13:43:48.526Z,30.13
2022-08-17T13:46:21.696Z,29.42
2022-08-17T13:49:20.719Z,28.52
2022-08-17T13:51:50.251Z,24.20
2022-08-17T13:54:31.070Z,24.05
2022-08-17T13:57:02.111Z,22.27
2022-08-17T13:59:54.193Z,22.40
2022-08-17T14:02:27.223Z,28.70
2022-08-17T14:04:56.220Z,23.98
2022-08-17T14:07:27.780Z,23.35
2022-08-17T14:10:02.500Z,22.20
2022-08-17T14:12:33.722Z,18.08
2022-08-17T14:15:02.221Z,14.75
2022-08-17T14:17:36.304Z,19.55
2022-08-17T14:20:09.846Z,13.38
2022-08-17T14:22:43.434Z,16.15
2022-08-17T14:25:14.297Z,18.00
2022-08-17T14:27:52.156Z,18.67
2022-08-17T14:30:23.800Z,13.80
2022-08-17T14:32:52.235Z,18.15
2022-08-17T14:37:49.807Z,13.50
2022-08-17T14:40:20.991Z,17.60
2022-08-17T14:42:48.369Z,19.20
2022-08-17T14:45:30.471Z,17.92
2022-08-17T14:48:04.331Z,18.08
2022-08-17T14:50:31.820Z,15.60
2022-08-17T14:52:59.277Z,19.25
2022-08-17T14:55:33.473Z,16.77
2022-08-17T14:58:00.674Z,15.82
2022-08-17T15:00:28.747Z,15.35
2022-08-17T15:02:58.544Z,17.73
2022-08-17T15:05:31.755Z,16.73
2022-08-17T15:08:01.215Z,16.77
2022-08-17T15:10:30.509Z,22.40
2022-08-17T15:12:58.148Z,18.63
2022-08-17T15:15:30.292Z,20.25
2022-08-17T15:17:58.120Z,16.65
2022-08-17T15:20:28.424Z,10.50
2022-08-17T15:23:07.083Z,11.90
2022-08-17T15:25:34.482Z,10.18
2022-08-17T15:28:02.508Z,14.00
2022-08-17T15:30:31.519Z,11.82
2022-08-17T15:32:59.572Z,15.00
2022-08-17T15:35:39.415Z,10.43
2022-08-17T15:38:12.408Z,11.57
2022-08-17T15:40:47.173Z,11.45
2022-08-17T15:43:27.934Z,12.45
2022-08-17T15:48:42.076Z,10.35
2022-08-17T15:51:22.664Z,9.90
2022-08-17T15:53:57.118Z,13.45
2022-08-17T15:56:40.189Z,12.85
2022-08-17T15:59:07.262Z,11.88
2022-08-17T16:04:30.294Z,11.00
2022-08-17T16:06:59.224Z,13.88
2022-08-17T16:09:26.293Z,10.20
2022-08-17T16:11:58.277Z,12.57
2022-08-17T16:14:40.930Z,10.63
2022-08-17T16:17:38.888Z,10.75
2022-08-17T16:19:57.551Z,15.23
2022-08-17T16:22:44.036Z,13.82
2022-08-17T16:25:17.512Z,19.90
2022-08-17T16:27:45.084Z,15.75
2022-08-17T16:30:17.666Z,17.45
2022-08-17T16:32:45.595Z,15.75
2022-08-17T16:35:17.371Z,18.08
2022-08-17T16:37:45.816Z,20.60
2022-08-17T16:40:15.884Z,17.65
2022-08-17T16:42:45.432Z,22.90
2022-08-17T16:45:18.018Z,21.88
2022-08-17T16:47:45.892Z,22.65
2022-08-17T16:53:17.999Z,19.75
2022-08-17T16:55:52.481Z,19.13
2022-08-17T16:58:23.867Z,21.98
2022-08-17T17:00:51.854Z,22.73
2022-08-17T17:03:21.780Z,17.25
2022-08-17T17:06:13.789Z,21.85
2022-08-17T17:08:44.689Z,20.65
2022-08-17T17:11:29.209Z,19.15
2022-08-17T17:14:04.631Z,32.88
2022-08-17T17:16:52.762Z,18.48
2022-08-17T17:19:35.644Z,18.05
2022-08-17T17:22:15.441Z,18.63
2022-08-17T17:25:05.108Z,21.48
2022-08-17T17:28:15.233Z,22.05
2022-08-17T17:31:02.341Z,23.95
2022-08-17T17:33:56.463Z,22.58
2022-08-17T17:36:54.428Z,24.67
2022-08-17T17:39:45.609Z,40.67
2022-08-17T17:42:24.069Z,38.83
2022-08-17T17:45:19.009Z,99.13
2022-08-17T17:47:51.832Z,67.78
2022-08-17T17:50:23.653Z,25.05
2022-08-17T17:53:05.540Z,23.58
2022-08-17T17:58:36.966Z,21.95
2022-08-17T18:01:26.715Z,21.40
2022-08-17T18:04:20.289Z,22.92
2022-08-17T18:10:01.014Z,16.33
2022-08-17T18:13:01.929Z,27.15
2022-08-17T18:15:53.299Z,19.45
2022-08-17T18:18:45.132Z,13.40
2022-08-17T18:21:23.374Z,16.05
2022-08-17T18:24:19.878Z,11.85
2022-08-17T18:27:08.235Z,12.35
2022-08-17T18:29:49.109Z,11.82
2022-08-17T18:32:46.753Z,17.08
2022-08-17T18:35:14.482Z,14.57
2022-08-17T18:37:56.743Z,14.15
2022-08-17T18:40:37.719Z,13.00
2022-08-17T18:43:05.461Z,9.63
2022-08-17T18:45:53.346Z,10.70
2022-08-17T18:49:02.629Z,25.00
2022-08-17T18:51:41.045Z,19.63
2022-08-17T18:54:25.395Z,12.18
2022-08-17T18:57:00.290Z,14.15
2022-08-17T18:59:48.375Z,21.10
2022-08-17T19:02:45.719Z,13.25
2022-08-17T19:05:42.430Z,15.10
2022-08-17T19:08:28.560Z,12.45
2022-08-17T19:11:13.176Z,12.38
2022-08-17T19:13:49.278Z,15.13
2022-08-17T19:16:53.315Z,18.27
2022-08-17T19:19:30.738Z,23.15
2022-08-17T19:22:28.687Z,22.73
2022-08-17T19:25:17.357Z,18.67
2022-08-17T19:28:15.321Z,15.63
2022-08-17T19:30:54.749Z,21.38
2022-08-17T19:33:26.132Z,18.17
2022-08-17T19:36:08.153Z,15.23
2022-08-17T19:39:19.853Z,15.05
2022-08-17T19:41:54.423Z,39.72
2022-08-17T19:44:40.082Z,42.72
2022-08-17T19:47:53.112Z,24.27
2022-08-17T19:50:16.745Z,17.85
2022-08-17T19:53:09.843Z,18.65
2022-08-17T19:55:37.045Z,17.05
2022-08-17T19:58:30.320Z,20.00
2022-08-17T20:00:57.683Z,14.05
2022-08-17T20:03:37.740Z,14.48
2022-08-17T20:06:14.261Z,15.35
2022-08-17T20:09:14.310Z,16.00
2022-08-17T20:11:49.153Z,17.42
2022-08-17T20:14:23.971Z,13.55
2022-08-17T20:16:52.512Z,16.40
2022-08-17T20:19:27.279Z,14.48
2022-08-17T20:22:00.432Z,16.50
2022-08-17T20:24:35.041Z,14.55
2022-08-17T20:27:32.104Z,14.10
2022-08-17T20:30:12.130Z,11.02
2022-08-17T20:32:49.650Z,13.20
2022-08-17T20:35:17.525Z,13.73
2022-08-17T20:37:59.936Z,13.10
2022-08-17T20:40:30.865Z,15.90
2022-08-17T20:43:35.812Z,15.43
2022-08-17T20:46:51.539Z,12.18
2022-08-17T20:49:40.203Z,14.85
2022-08-17T20:52:10.824Z,11.15
2022-08-17T20:55:00.028Z,15.73
2022-08-17T20:57:33.222Z,15.48
2022-08-17T21:00:32.948Z,12.00
2022-08-17T21:03:27.236Z,16.52
2022-08-17T21:06:17.092Z,12.32
2022-08-17T21:08:58.010Z,17.35
2022-08-17T21:11:56.961Z,20.17
2022-08-17T21:14:46.106Z,18.60
2022-08-17T21:17:32.155Z,16.35
2022-08-17T21:20:11.804Z,17.77
2022-08-17T21:23:01.722Z,14.38
2022-08-17T21:26:02.849Z,16.42
2022-08-17T21:29:00.929Z,15.35
2022-08-17T21:31:35.590Z,14.52
2022-08-17T21:34:15.531Z,20.55
2022-08-17T21:36:44.945Z,16.63
2022-08-17T21:39:30.593Z,19.42
2022-08-17T21:42:04.702Z,14.65
2022-08-17T21:44:37.572Z,14.95
2022-08-17T21:47:24.763Z,18.13
2022-08-17T21:49:56.647Z,13.07
2022-08-17T21:52:27.874Z,24.70
2022-08-17T21:55:00.830Z,17.10
2022-08-17T21:57:30.431Z,14.27
2022-08-17T22:00:01.533Z,18.25
2022-08-17T22:02:37.467Z,13.95
2022-08-17T22:05:09.536Z,14.60
2022-08-17T22:07:53.087Z,16.50
2022-08-17T22:10:32.388Z,12.57
2022-08-17T22:13:16.772Z,15.13
2022-08-17T22:15:47.773Z,19.50
2022-08-17T22:18:26.942Z,14.38
2022-08-17T22:21:01.741Z,17.42
2022-08-17T22:23:52.939Z,15.18
2022-08-17T22:26:25.469Z,11.85
2022-08-17T22:28:59.342Z,14.48
2022-08-17T22:31:28.897Z,13.25
2022-08-17T22:34:01.826Z,15.35
2022-08-17T22:36:29.511Z,14.88
2022-08-17T22:39:02.699Z,21.90
2022-08-17T22:41:48.403Z,15.38
2022-08-17T22:44:29.685Z,18.83
2022-08-17T22:47:19.161Z,19.05
2022-08-17T22:49:53.889Z,15.60
2022-08-17T22:52:56.941Z,16.65
2022-08-17T22:55:43.950Z,13.13
2022-08-17T22:58:37.314Z,19.35
2022-08-17T23:01:28.519Z,17.83
2022-08-17T23:04:02.952Z,17.90
2022-08-17T23:06:35.316Z,22.77
2022-08-17T23:09:06.307Z,16.25
2022-08-17T23:11:49.076Z,18.05
2022-08-17T23:14:19.957Z,18.02
2022-08-17T23:16:50.384Z,19.80
2022-08-17T23:19:21.481Z,17.75
2022-08-17T23:21:51.100Z,24.40
2022-08-17T23:24:41.836Z,21.30
2022-08-17T23:27:09.517Z,19.92
2022-08-17T23:29:41.462Z,17.38
2022-08-17T23:32:15.914Z,19.73
2022-08-17T23:34:44.706Z,16.80
2022-08-17T23:37:12.374Z,21.52
2022-08-17T23:39:39.995Z,19.75
2022-08-17T23:42:11.195Z,16.80
2022-08-17T23:44:40.160Z,18.00
2022-08-17T23:47:07.954Z,15.70
2022-08-17T23:49:36.404Z,14.98
2022-08-17T23:52:06.962Z,18.50
2022-08-17T23:54:46.626Z,20.83
2022-08-17T23:57:16.820Z,20.17
2022-08-17T23:59:44.777Z,17.38
